Laie, Hawaii
Current Conditions -  °F | °C
As of 10:40 AM on Monday 22 Dec 2014 (Local Time) from PHHI Reporting Station
Drizzle Drizzle  
Wind Chill: 68°   Ceiling: 1900
Heat Index: 68°   Visibility: 10mi
Dew Point: 66°   Wind: 10mph
Humidity: 94%   Direction: 360°N
Pressure: 30.06"   Gusts: 20mph
Location:  21.65°N, 157.92°W
Report Text: PHHI 222040Z AUTO 36009G17KT 10SM -DZ FEW010 BKN019 20/19 A3006 RMK AO2 RAE2018DZB2018 $
Loading
Personal Weather Stations






























Interactive Weather Map New forecast layout! Learn more

10-Day Weather Forecast

Advertisements
Track Severe Weather on mobile